»·PEaware :: N7914W KVNY-KONT

N7914W :: KVNY-KONT

FLIGHT INFORMATION

Flight Status: Arrived
Operator: Privately registered:
United States
More flights under this callsign
Pilot: Andrew M. (139)
Aircraft: CESSNA 172 SKYHAWK
(C172)
More flights by this aircraft type
Origin: KVNY Van Nuys
United States
Destination: KONT Ontario Intl
United States
More flights between these airports :: More routes between these airports
Route: +ADAMM2 ADAMM V186 PDZ
File this flight plan on PilotEdge
Remarks:
Altitude:
(Current/Filed)
5,000ft
Speed:
(Current/Filed)
110kts
Departed: 04-Jan-19 09:41 PM
Arrived: 04-Jan-19 10:11 PM
Distance/Time
Traveled:
45nm/0:30
Distance/Time
To Go:
Arrived

Flight Plot

Page will automatically refresh every two minutes.

Flight plan parsing failed; only flown route is shown


Map Options




Map Legend


Flown Route
Filed Route
Departure Airport
Arrival Airport
Navaid (VOR, NDB)
Fix

Horizontal Profiles

Position Reports

Time Latitude Longitude Heading Altitude Ground
Speed
04-Jan-19 21:19 34.207527 -118.493281 179 806ft 0kts
04-Jan-19 21:20 34.207527 -118.493281 179 806ft 0kts
04-Jan-19 21:21 34.207527 -118.493281 179 806ft 0kts
04-Jan-19 21:22 34.207527 -118.493281 179 806ft 0kts
04-Jan-19 21:23 34.207527 -118.493281 179 806ft 0kts
04-Jan-19 21:24 34.207527 -118.493281 179 806ft 0kts
04-Jan-19 21:25 34.207527 -118.493281 179 806ft 0kts
04-Jan-19 21:26 34.207527 -118.493281 179 806ft 0kts
04-Jan-19 21:27 34.207527 -118.493281 179 806ft 0kts
04-Jan-19 21:28 34.207527 -118.493281 179 806ft 0kts
04-Jan-19 21:29 34.207527 -118.493281 179 806ft 0kts
04-Jan-19 21:30 34.207527 -118.493281 179 806ft 0kts
04-Jan-19 21:31 34.207527 -118.493281 179 806ft 0kts
04-Jan-19 21:32 34.207527 -118.493281 179 806ft 0kts
04-Jan-19 21:33 34.207527 -118.493281 179 806ft 0kts
04-Jan-19 21:34 34.206700 -118.493231 151 806ft 6kts
04-Jan-19 21:35 34.206643 -118.491713 91 806ft 3kts
04-Jan-19 21:36 34.207267 -118.491304 355 806ft 7kts
04-Jan-19 21:37 34.209894 -118.491543 5 806ft 5kts
04-Jan-19 21:38 34.210133 -118.491343 72 806ft 0kts
04-Jan-19 21:39 34.210141 -118.491301 78 806ft 3kts
04-Jan-19 21:40 34.199471 -118.489427 176 1018ft 85kts
04-Jan-19 21:41 34.173669 -118.485947 141 1750ft 102kts
04-Jan-19 21:42 34.157253 -118.461938 125 2653ft 93kts
04-Jan-19 21:43 34.142921 -118.437383 103 3568ft 91kts
04-Jan-19 21:44 34.138592 -118.408700 104 4487ft 83kts
04-Jan-19 21:45 34.134608 -118.381298 104 5011ft 102kts
04-Jan-19 21:46 34.130540 -118.350020 102 5001ft 100kts
04-Jan-19 21:48 34.126276 -118.316857 103 5002ft 101kts
04-Jan-19 21:49 34.121898 -118.282797 100 4999ft 107kts
04-Jan-19 21:50 34.117660 -118.248416 101 5009ft 104kts
04-Jan-19 21:51 34.110978 -118.216133 103 5055ft 100kts
04-Jan-19 21:52 34.107463 -118.182330 99 5047ft 103kts
04-Jan-19 21:53 34.104319 -118.147775 100 5038ft 105kts
04-Jan-19 21:54 34.100828 -118.112824 102 5030ft 101kts
04-Jan-19 21:55 34.095332 -118.078852 105 5031ft 105kts
04-Jan-19 21:56 34.089289 -118.044463 105 5024ft 103kts
04-Jan-19 21:57 34.083063 -118.010564 108 5029ft 103kts
04-Jan-19 21:58 34.076772 -117.977399 107 5086ft 98kts
04-Jan-19 21:59 34.071295 -117.944349 106 5068ft 101kts
04-Jan-19 22:00 34.065733 -117.910556 105 4850ft 108kts
04-Jan-19 22:01 34.059764 -117.875487 102 4240ft 104kts
04-Jan-19 22:02 34.053323 -117.843271 97 4017ft 89kts
04-Jan-19 22:03 34.054119 -117.814083 83 4020ft 89kts
04-Jan-19 22:04 34.055808 -117.784450 91 3659ft 84kts
04-Jan-19 22:05 34.054628 -117.756434 91 3214ft 84kts
04-Jan-19 22:06 34.055117 -117.728778 91 2818ft 82kts
04-Jan-19 22:07 34.054185 -117.701414 90 2492ft 90kts
04-Jan-19 22:08 34.054890 -117.668436 88 1784ft 104kts
04-Jan-19 22:09 34.054877 -117.636532 91 1293ft 73kts
04-Jan-19 22:10 34.054922 -117.614143 89 941ft 65kts
04-Jan-19 22:11 34.054435 -117.604154 127 920ft 11kts
04-Jan-19 22:11 34.052885 -117.604246 288 914ft 8kts
04-Jan-19 22:12 34.053008 -117.604441 316 915ft 0kts

Navigation Log

Ident Type
Flight plan parsing failed, navigation log unavailable